createdAt,value
2023-02-03T00:02:12.640Z,100240.72
2023-02-03T00:07:34.269Z,100249.75
2023-02-03T00:10:00.997Z,100247.16
2023-02-03T00:12:28.694Z,100249.97
2023-02-03T00:14:56.055Z,100255.38
2023-02-03T00:17:23.681Z,100265.97
2023-02-03T00:19:51.254Z,100270.38
2023-02-03T00:22:19.655Z,100271.63
2023-02-03T00:24:46.322Z,100280.41
2023-02-03T00:30:10.963Z,100280.19
2023-02-03T00:32:38.384Z,100279.41
2023-02-03T00:35:06.149Z,100270.38
2023-02-03T00:37:36.720Z,100265.97
2023-02-03T00:40:03.677Z,100272.53
2023-02-03T00:42:31.507Z,100270.53
2023-02-03T00:44:58.282Z,100284.72
2023-02-03T00:47:29.098Z,100280.13
2023-02-03T00:49:57.548Z,100285.31
2023-02-03T00:52:26.096Z,100287.47
2023-02-03T00:54:54.117Z,100289.84
2023-02-03T00:57:46.309Z,100279.66
2023-02-03T01:00:15.014Z,100273.13
2023-02-03T01:02:41.792Z,100273.56
2023-02-03T01:05:14.093Z,100271.16
2023-02-03T01:07:42.571Z,100262.94
2023-02-03T01:10:09.817Z,100261.13
2023-02-03T01:12:36.889Z,100255.16
2023-02-03T01:15:04.094Z,100247.66
2023-02-03T01:17:31.012Z,100252.44
2023-02-03T01:20:01.093Z,100244.94
2023-02-03T01:22:30.637Z,100242.91
2023-02-03T01:24:59.071Z,100240.91
2023-02-03T01:27:28.110Z,100240.19
2023-02-03T01:29:56.359Z,100239.41
2023-02-03T01:32:26.254Z,100244.47
2023-02-03T01:34:53.006Z,100235.13
2023-02-03T01:40:12.052Z,100225.69
2023-02-03T01:42:39.313Z,100228.28
2023-02-03T01:45:06.439Z,100220.13
2023-02-03T01:47:40.205Z,100224.00
2023-02-03T01:50:20.414Z,100225.69
2023-02-03T01:52:56.195Z,100223.28
2023-02-03T01:55:31.725Z,100222.94
2023-02-03T01:58:27.103Z,100226.66
2023-02-03T02:00:55.984Z,100219.34
2023-02-03T02:03:34.154Z,100216.53
2023-02-03T02:06:09.812Z,100212.91
2023-02-03T02:08:38.675Z,100205.13
2023-02-03T02:11:07.112Z,100196.53
2023-02-03T02:13:36.194Z,100194.53
2023-02-03T02:16:19.019Z,100200.94
2023-02-03T02:19:09.876Z,100196.84
2023-02-03T02:21:57.076Z,100202.38
2023-02-03T02:24:42.236Z,100203.41
2023-02-03T02:27:19.646Z,100197.19
2023-02-03T02:30:27.586Z,100192.44
2023-02-03T02:32:58.108Z,100203.06
2023-02-03T02:35:39.136Z,100204.28
2023-02-03T02:38:15.590Z,100200.66
2023-02-03T02:41:14.288Z,100193.91
2023-02-03T02:43:57.115Z,100187.69
2023-02-03T02:46:33.658Z,100185.88
2023-02-03T02:49:15.967Z,100184.59
2023-02-03T02:51:45.370Z,100176.03
2023-02-03T02:54:16.851Z,100181.94
2023-02-03T02:56:48.482Z,100177.19
2023-02-03T02:59:15.787Z,100174.78
2023-02-03T03:01:44.160Z,100171.81
2023-02-03T03:04:16.547Z,100177.44
2023-02-03T03:06:48.970Z,100163.91
2023-02-03T03:09:19.092Z,100158.00
2023-02-03T03:11:53.158Z,100154.03
2023-02-03T03:14:23.563Z,100146.25
2023-02-03T03:16:57.949Z,100151.31
2023-02-03T03:19:31.690Z,100144.88
2023-02-03T03:22:04.500Z,100143.38
2023-02-03T03:24:38.332Z,100141.81
2023-02-03T03:27:16.941Z,100150.38
2023-02-03T03:30:17.165Z,100150.72
2023-02-03T03:32:45.193Z,100150.72
2023-02-03T03:35:12.059Z,100145.91
2023-02-03T03:37:55.865Z,100134.75
2023-02-03T03:40:40.523Z,100131.47
2023-02-03T03:43:15.362Z,100125.56
2023-02-03T03:45:54.075Z,100118.16
2023-02-03T03:48:28.188Z,100122.78
2023-02-03T03:51:19.253Z,100122.00
2023-02-03T03:53:51.319Z,100122.97
2023-02-03T03:56:25.486Z,100120.75
2023-02-03T03:58:54.138Z,100130.75
2023-02-03T04:01:23.470Z,100125.03
2023-02-03T04:03:56.388Z,100126.72
2023-02-03T04:06:23.889Z,100124.28
2023-02-03T04:08:50.834Z,100135.09
2023-02-03T04:11:18.207Z,100119.16
2023-02-03T04:13:44.989Z,100100.16
2023-02-03T04:16:12.584Z,100091.41
2023-02-03T04:18:41.130Z,100094.44
2023-02-03T04:21:07.918Z,100094.00
2023-02-03T04:23:34.653Z,100096.41
2023-02-03T04:26:02.140Z,100092.91
2023-02-03T04:28:28.969Z,100092.91
2023-02-03T04:30:55.648Z,100082.41
2023-02-03T04:33:22.490Z,100081.84
2023-02-03T04:35:49.230Z,100086.03
2023-02-03T04:41:09.229Z,100075.19
2023-02-03T04:43:36.082Z,100062.00
2023-02-03T04:46:03.731Z,100073.19
2023-02-03T04:48:30.707Z,100066.34
2023-02-03T04:51:03.389Z,100066.69
2023-02-03T04:53:31.759Z,100062.41
2023-02-03T04:55:58.652Z,100054.97
2023-02-03T04:58:25.509Z,100048.97
2023-02-03T05:00:53.124Z,100035.69
2023-02-03T05:03:24.156Z,100047.78
2023-02-03T05:05:52.792Z,100042.25
2023-02-03T05:08:19.933Z,100040.69
2023-02-03T05:10:47.065Z,100047.44
2023-02-03T05:13:14.122Z,100038.78
2023-02-03T05:15:42.713Z,100043.53
2023-02-03T05:18:09.393Z,100033.38
2023-02-03T05:20:37.682Z,100023.09
2023-02-03T05:23:28.946Z,100021.41
2023-02-03T05:25:55.943Z,100015.75
2023-02-03T05:28:22.664Z,100019.25
2023-02-03T05:30:49.643Z,100003.00
2023-02-03T05:33:17.105Z,100016.34
2023-02-03T05:35:44.035Z,100015.97
2023-02-03T05:38:10.865Z,100000.59
2023-02-03T05:41:03.603Z,100002.06
2023-02-03T05:43:30.574Z,99999.47
2023-02-03T05:46:03.647Z,100004.28
2023-02-03T05:48:32.081Z,99992.41
2023-02-03T05:50:59.652Z,99998.88
2023-02-03T05:53:28.337Z,99984.94
2023-02-03T05:55:55.217Z,99989.59
2023-02-03T05:58:22.638Z,99983.94
2023-02-03T06:00:50.278Z,99993.72
2023-02-03T06:03:17.065Z,99982.09
2023-02-03T06:05:44.794Z,99975.78
2023-02-03T06:08:11.900Z,99955.38
2023-02-03T06:10:38.840Z,99973.72
2023-02-03T06:13:16.106Z,99962.78
2023-02-03T06:15:43.356Z,99958.09
2023-02-03T06:21:03.120Z,99974.69
2023-02-03T06:23:29.809Z,99949.72
2023-02-03T06:25:58.260Z,99960.56
2023-02-03T06:28:24.999Z,99966.75
2023-02-03T06:30:52.273Z,99960.22
2023-02-03T06:33:21.743Z,99951.38
2023-02-03T06:35:49.544Z,99940.38
2023-02-03T06:38:19.652Z,99955.09
2023-02-03T06:40:47.507Z,99937.34
2023-02-03T06:43:14.686Z,99940.53
2023-02-03T06:45:41.951Z,99936.91
2023-02-03T06:48:12.116Z,99919.31
2023-02-03T06:50:40.519Z,99926.81
2023-02-03T06:53:07.470Z,99936.94
2023-02-03T06:55:41.217Z,99921.00
2023-02-03T06:58:08.739Z,99925.75
2023-02-03T07:00:35.693Z,99922.19
2023-02-03T07:03:02.646Z,99937.00
2023-02-03T07:05:29.387Z,99925.97
2023-02-03T07:07:56.470Z,99941.34
2023-02-03T07:10:23.294Z,99928.44
2023-02-03T07:12:50.234Z,99928.66
2023-02-03T07:15:17.138Z,99927.66
2023-02-03T07:17:43.967Z,99930.94
2023-02-03T07:20:11.258Z,99950.50
2023-02-03T07:22:38.214Z,99925.09
2023-02-03T07:25:05.241Z,99922.19
2023-02-03T07:27:32.604Z,99910.44
2023-02-03T07:30:00.183Z,99920.16
2023-02-03T07:32:27.596Z,99916.84
2023-02-03T07:34:54.320Z,99902.25
2023-02-03T07:37:21.246Z,99907.75
2023-02-03T07:39:47.911Z,99909.59
2023-02-03T07:42:15.521Z,99896.00
2023-02-03T07:44:46.125Z,99901.84
2023-02-03T07:47:13.568Z,99871.94
2023-02-03T07:49:41.294Z,99897.56
2023-02-03T07:52:07.955Z,99892.56
2023-02-03T07:54:36.198Z,99879.53
2023-02-03T07:57:02.887Z,99879.75
2023-02-03T07:59:34.109Z,99864.22
2023-02-03T08:02:00.880Z,99874.66
2023-02-03T08:04:29.164Z,99875.22
2023-02-03T08:06:56.002Z,99864.88
2023-02-03T08:09:23.577Z,99856.31
2023-02-03T08:11:52.202Z,99871.78
2023-02-03T08:14:19.836Z,99871.09
2023-02-03T08:16:50.724Z,99878.31
2023-02-03T08:19:17.708Z,99858.53
2023-02-03T08:21:44.458Z,99872.59
2023-02-03T08:24:11.642Z,99854.66
2023-02-03T08:26:38.521Z,99840.50
2023-02-03T08:29:05.374Z,99849.03
2023-02-03T08:31:32.251Z,99834.50
2023-02-03T08:34:00.191Z,99840.00
2023-02-03T08:36:42.010Z,99814.84
2023-02-03T08:39:12.209Z,99817.44
2023-02-03T08:41:39.027Z,99809.63
2023-02-03T08:44:06.691Z,99809.03
2023-02-03T08:46:33.471Z,99802.53
2023-02-03T08:49:00.703Z,99794.81
2023-02-03T08:51:29.205Z,99792.50
2023-02-03T08:53:55.956Z,99779.25
2023-02-03T08:56:23.633Z,99778.22
2023-02-03T08:58:50.429Z,99777.72
2023-02-03T09:01:17.235Z,99781.47
2023-02-03T09:03:44.093Z,99773.38
2023-02-03T09:06:11.578Z,99741.31
2023-02-03T09:08:38.572Z,99770.59
2023-02-03T09:11:10.479Z,99765.66
2023-02-03T09:13:38.226Z,99756.44
2023-02-03T09:16:08.743Z,99757.50
2023-02-03T09:18:35.760Z,99743.72
2023-02-03T09:21:08.419Z,99727.78
2023-02-03T09:23:35.383Z,99737.72
2023-02-03T09:26:06.779Z,99760.94
2023-02-03T09:28:34.373Z,99733.06
2023-02-03T09:31:15.096Z,99737.56
2023-02-03T09:33:41.993Z,99760.91
2023-02-03T09:36:09.005Z,99709.41
2023-02-03T09:38:36.053Z,99725.63
2023-02-03T09:41:12.087Z,99742.06
2023-02-03T09:43:50.985Z,99719.91
2023-02-03T09:46:22.555Z,99715.47
2023-02-03T09:48:54.983Z,99714.72
2023-02-03T09:51:55.607Z,99714.72
2023-02-03T09:54:41.912Z,99696.16
2023-02-03T09:57:19.388Z,99688.81
2023-02-03T09:59:46.293Z,99684.94
2023-02-03T10:02:23.455Z,99682.03
2023-02-03T10:05:20.423Z,99677.31
2023-02-03T10:08:02.482Z,99690.94
2023-02-03T10:10:45.747Z,99687.53
2023-02-03T10:13:29.213Z,99648.34
2023-02-03T10:15:59.785Z,99670.81
2023-02-03T10:18:47.379Z,99658.28
2023-02-03T10:21:40.424Z,99638.69
2023-02-03T10:24:16.392Z,99633.22
2023-02-03T10:27:20.565Z,99626.44
2023-02-03T10:33:09.115Z,99625.41
2023-02-03T10:35:48.392Z,99593.00
2023-02-03T10:39:18.446Z,99594.34
2023-02-03T10:41:48.866Z,99569.00
2023-02-03T10:44:15.948Z,99593.81
2023-02-03T10:46:45.272Z,99574.72
2023-02-03T10:49:13.791Z,99552.50
2023-02-03T10:51:53.209Z,99569.00
2023-02-03T10:54:32.477Z,99556.72
2023-02-03T10:57:10.864Z,99508.34
2023-02-03T10:59:42.741Z,99546.00
2023-02-03T11:02:36.383Z,99530.28
2023-02-03T11:05:23.298Z,99564.03
2023-02-03T11:07:51.401Z,99546.47
2023-02-03T11:10:38.771Z,99528.72
2023-02-03T11:13:24.402Z,99553.00
2023-02-03T11:15:55.869Z,99558.25
2023-02-03T11:18:58.215Z,99529.50
2023-02-03T11:21:31.593Z,99538.38
2023-02-03T11:24:03.303Z,99536.03
2023-02-03T11:26:41.872Z,99536.56
2023-02-03T11:29:18.402Z,99542.31
2023-02-03T11:31:49.886Z,99545.44
2023-02-03T11:34:22.018Z,99545.44
2023-02-03T11:36:52.803Z,99529.75
2023-02-03T11:39:27.243Z,99526.13
2023-02-03T11:41:56.423Z,99509.88
2023-02-03T11:44:26.039Z,99493.19
2023-02-03T11:46:58.262Z,99475.13
2023-02-03T11:50:11.441Z,99463.88
2023-02-03T11:52:51.266Z,99461.00
2023-02-03T11:55:33.720Z,99438.78
2023-02-03T11:58:27.879Z,99433.03
2023-02-03T12:01:53.870Z,99411.88
2023-02-03T12:04:48.345Z,99405.59
2023-02-03T12:07:38.471Z,99409.47
2023-02-03T12:10:52.711Z,99400.63
2023-02-03T12:13:43.524Z,99410.56
2023-02-03T12:16:25.282Z,99388.84
2023-02-03T12:19:19.312Z,99383.13
2023-02-03T12:21:52.294Z,99359.59
2023-02-03T12:24:42.042Z,99361.94
2023-02-03T12:27:39.360Z,99347.06
2023-02-03T12:30:20.213Z,99326.41
2023-02-03T12:32:54.288Z,99334.00
2023-02-03T12:35:26.765Z,99308.38
2023-02-03T12:42:02.335Z,99325.06
2023-02-03T12:45:03.754Z,99298.41
2023-02-03T12:48:10.253Z,99305.47
2023-02-03T12:50:44.664Z,99278.81
2023-02-03T12:53:14.563Z,99306.47
2023-02-03T12:55:56.040Z,99279.63
2023-02-03T12:58:32.060Z,99269.19
2023-02-03T13:01:06.423Z,99231.56
2023-02-03T13:04:12.633Z,99249.88
2023-02-03T13:06:58.528Z,99240.69
2023-02-03T13:09:58.346Z,99217.69
2023-02-03T13:12:55.990Z,99229.44
2023-02-03T13:15:51.213Z,99224.75
2023-02-03T13:18:39.848Z,99209.31
2023-02-03T13:21:11.256Z,99204.63
2023-02-03T13:23:43.091Z,99188.34
2023-02-03T13:26:42.280Z,99196.19
2023-02-03T13:29:18.829Z,99157.50
2023-02-03T13:32:08.309Z,99200.09
2023-02-03T13:34:38.430Z,99218.63
2023-02-03T13:37:17.205Z,99204.72
2023-02-03T13:39:56.605Z,99207.91
2023-02-03T13:42:28.232Z,99199.03
2023-02-03T13:45:19.353Z,99211.63
2023-02-03T13:47:49.576Z,99216.31
2023-02-03T13:50:27.230Z,99207.13
2023-02-03T13:52:57.470Z,99215.50
2023-02-03T13:55:28.550Z,99234.91
2023-02-03T13:57:55.746Z,99228.44
2023-02-03T14:00:46.279Z,99242.69
2023-02-03T14:03:31.771Z,99225.78
2023-02-03T14:05:59.751Z,99255.84
2023-02-03T14:08:26.462Z,99265.50
2023-02-03T14:11:32.356Z,99283.25
2023-02-03T14:14:05.712Z,99276.44
2023-02-03T14:16:38.290Z,99266.31
2023-02-03T14:19:10.891Z,99308.34
2023-02-03T14:21:54.323Z,99278.34
2023-02-03T14:24:22.674Z,99279.16
2023-02-03T14:27:02.263Z,99296.63
2023-02-03T14:29:36.979Z,99291.16
2023-02-03T14:32:10.510Z,99265.84
2023-02-03T14:34:40.728Z,99295.59
2023-02-03T14:37:30.731Z,99285.69
2023-02-03T14:40:20.251Z,99269.78
2023-02-03T14:43:08.620Z,99295.34
2023-02-03T14:46:17.184Z,99293.25
2023-02-03T14:52:10.383Z,99292.47
2023-02-03T14:55:30.361Z,99296.63
2023-02-03T15:00:57.042Z,99307.06
2023-02-03T15:03:25.457Z,99292.22
2023-02-03T15:06:03.334Z,99322.75
2023-02-03T15:08:38.419Z,99313.63
2023-02-03T15:11:29.249Z,99307.34
2023-02-03T15:14:13.962Z,99308.66
2023-02-03T15:17:31.238Z,99296.66
2023-02-03T15:19:58.629Z,99296.91
2023-02-03T15:22:50.874Z,99283.59
2023-02-03T15:25:19.669Z,99270.03
2023-02-03T15:27:46.685Z,99228.31
2023-02-03T15:30:19.248Z,99238.97
2023-02-03T15:33:00.319Z,99224.13
2023-02-03T15:36:00.121Z,99228.53
2023-02-03T15:38:39.372Z,99227.50
2023-02-03T15:41:14.846Z,99207.13
2023-02-03T15:43:50.315Z,99225.13
2023-02-03T15:46:22.754Z,99214.97
2023-02-03T15:49:22.363Z,99223.31
2023-02-03T15:52:07.959Z,99239.47
2023-02-03T15:55:17.834Z,99232.69
2023-02-03T15:57:49.315Z,99215.47
2023-02-03T16:00:37.063Z,99233.72
2023-02-03T16:03:39.185Z,99220.41
2023-02-03T16:06:17.332Z,99204.50
2023-02-03T16:08:48.707Z,99200.56
2023-02-03T16:11:40.282Z,99202.38
2023-02-03T16:14:11.828Z,99202.34
2023-02-03T16:17:02.740Z,99198.19
2023-02-03T16:19:32.166Z,99180.94
2023-02-03T16:22:00.814Z,99165.28
2023-02-03T16:24:33.548Z,99176.25
2023-02-03T16:27:31.305Z,99173.63
2023-02-03T16:30:04.584Z,99175.47
2023-02-03T16:32:32.290Z,99175.22
2023-02-03T16:34:59.034Z,99177.75
2023-02-03T16:37:51.638Z,99167.03
2023-02-03T16:40:24.052Z,99160.25
2023-02-03T16:42:54.763Z,99175.09
2023-02-03T16:45:25.526Z,99158.13
2023-02-03T16:50:47.977Z,99154.94
2023-02-03T16:53:18.061Z,99150.53
2023-02-03T16:55:46.003Z,99186.53
2023-02-03T16:58:15.314Z,99153.03
2023-02-03T17:00:45.934Z,99151.47
2023-02-03T17:03:23.397Z,99182.03
2023-02-03T17:05:51.937Z,99167.41
2023-02-03T17:08:21.548Z,99161.94
2023-02-03T17:11:16.865Z,99180.97
2023-02-03T17:13:44.306Z,99203.91
2023-02-03T17:16:14.545Z,99196.59
2023-02-03T17:18:41.807Z,99179.13
2023-02-03T17:21:13.737Z,99187.75
2023-02-03T17:23:40.969Z,99197.44
2023-02-03T17:26:09.567Z,99183.56
2023-02-03T17:28:38.507Z,99177.53
2023-02-03T17:31:07.510Z,99155.09
2023-02-03T17:33:35.189Z,99163.19
2023-02-03T17:36:08.868Z,99155.38
2023-02-03T17:55:19.783Z,99112.53
2023-02-03T17:57:47.645Z,99160.59
2023-02-03T18:00:15.122Z,99137.28
2023-02-03T18:02:43.821Z,99180.16
2023-02-03T18:05:11.422Z,99211.03
2023-02-03T18:07:39.252Z,99232.19
2023-02-03T18:10:06.396Z,99271.97
2023-02-03T18:12:33.753Z,99307.28
2023-02-03T18:15:01.434Z,99305.75
2023-02-03T18:17:29.192Z,99323.50
2023-02-03T18:19:57.265Z,99336.03
2023-02-03T18:22:24.818Z,99342.28
2023-02-03T18:24:52.397Z,99360.56
2023-02-03T18:27:19.772Z,99339.16
2023-02-03T18:29:49.279Z,99325.06
2023-02-03T18:32:17.859Z,99336.53
2023-02-03T18:34:45.811Z,99342.00
2023-02-03T18:37:14.353Z,99358.66
2023-02-03T18:39:41.467Z,99347.44
2023-02-03T18:42:08.947Z,99340.16
2023-02-03T18:44:37.086Z,99340.69
2023-02-03T18:47:05.832Z,99341.47
2023-02-03T18:49:59.268Z,99337.53
2023-02-03T18:52:26.898Z,99338.34
2023-02-03T18:54:54.893Z,99343.56
2023-02-03T18:57:22.917Z,99333.13
2023-02-03T18:59:51.946Z,99326.88
2023-02-03T19:02:19.704Z,99329.97
2023-02-03T19:04:47.798Z,99334.97
2023-02-03T19:07:16.675Z,99334.94
2023-02-03T19:09:44.533Z,99323.72
2023-02-03T19:12:13.954Z,99323.47
2023-02-03T19:14:41.784Z,99336.50
2023-02-03T19:17:09.582Z,99317.50
2023-02-03T19:19:37.718Z,99318.28
2023-02-03T19:22:05.434Z,99319.56
2023-02-03T19:24:32.962Z,99324.25
2023-02-03T19:27:00.616Z,99324.78
2023-02-03T19:29:28.051Z,99321.66
2023-02-03T19:31:55.785Z,99322.19
2023-02-03T19:34:27.562Z,99300.56
2023-02-03T19:36:56.271Z,99306.81
2023-02-03T19:39:24.537Z,99315.94
2023-02-03T19:41:52.767Z,99311.00
2023-02-03T19:44:20.250Z,99319.31
2023-02-03T19:46:48.655Z,99327.16
2023-02-03T19:49:16.560Z,99338.91
2023-02-03T19:51:45.390Z,99345.41
2023-02-03T19:54:17.340Z,99346.72
2023-02-03T19:56:49.801Z,99351.69
2023-02-03T19:59:45.263Z,99360.56
2023-02-03T20:02:16.408Z,99343.34
2023-02-03T20:04:44.590Z,99359.78
2023-02-03T20:07:14.419Z,99354.56
2023-02-03T20:09:42.741Z,99352.72
2023-02-03T20:12:12.251Z,99364.72
2023-02-03T20:14:42.491Z,99359.78
2023-02-03T20:17:09.781Z,99364.75
2023-02-03T20:19:38.299Z,99360.81
2023-02-03T20:22:06.468Z,99368.88
2023-02-03T20:24:34.660Z,99353.00
2023-02-03T20:27:06.614Z,99350.38
2023-02-03T20:29:34.592Z,99357.16
2023-02-03T20:32:05.261Z,99349.09
2023-02-03T20:34:35.818Z,99348.03
2023-02-03T20:37:04.997Z,99332.91
2023-02-03T20:39:32.870Z,99348.81
2023-02-03T20:42:13.870Z,99336.56
2023-02-03T20:44:42.492Z,99334.47
2023-02-03T20:47:15.339Z,99327.94
2023-02-03T20:49:45.331Z,99331.34
2023-02-03T20:52:20.874Z,99313.88
2023-02-03T20:54:49.867Z,99324.81
2023-02-03T20:57:19.751Z,99318.84
2023-02-03T20:59:48.810Z,99313.06
2023-02-03T21:02:23.133Z,99308.41
2023-02-03T21:04:51.700Z,99303.69
2023-02-03T21:07:19.831Z,99294.53
2023-02-03T21:09:48.783Z,99288.31
2023-02-03T21:12:17.909Z,99282.06
2023-02-03T21:14:49.386Z,99286.22
2023-02-03T21:17:25.373Z,99281.28
2023-02-03T21:19:56.210Z,99277.59
2023-02-03T21:22:29.694Z,99281.25
2023-02-03T21:24:59.912Z,99272.38
2023-02-03T21:27:37.724Z,99279.19
2023-02-03T21:30:31.833Z,99277.34
2023-02-03T21:33:02.669Z,99281.50
2023-02-03T21:35:38.008Z,99285.16
2023-02-03T21:38:31.734Z,99289.59
2023-02-03T21:41:00.249Z,99283.31
2023-02-03T21:43:28.768Z,99286.97
2023-02-03T21:45:58.462Z,99284.88
2023-02-03T21:48:27.387Z,99284.88
2023-02-03T21:51:00.540Z,99303.13
2023-02-03T21:53:35.777Z,99294.78
2023-02-03T21:56:28.609Z,99296.09
2023-02-03T21:58:58.484Z,99293.47
2023-02-03T22:01:34.696Z,99304.72
2023-02-03T22:04:02.518Z,99306.00
2023-02-03T22:06:55.363Z,99301.06
2023-02-03T22:09:47.636Z,99290.63
2023-02-03T22:15:08.520Z,99297.94
2023-02-03T22:17:39.118Z,99312.56
2023-02-03T22:20:06.827Z,99302.91
2023-02-03T22:22:35.378Z,99305.00
2023-02-03T22:25:02.747Z,99302.34
2023-02-03T22:27:29.816Z,99308.34
2023-02-03T22:29:56.708Z,99321.69
2023-02-03T22:32:23.808Z,99321.16
2023-02-03T22:34:50.590Z,99313.84
2023-02-03T22:37:17.952Z,99315.94
2023-02-03T22:39:44.763Z,99330.28
2023-02-03T22:42:11.654Z,99320.91
2023-02-03T22:44:40.487Z,99310.22
2023-02-03T22:47:10.401Z,99332.91
2023-02-03T22:49:37.388Z,99337.31
2023-02-03T22:52:05.054Z,99335.78
2023-02-03T22:54:31.889Z,99338.13
2023-02-03T23:00:22.448Z,99331.09
2023-02-03T23:02:49.832Z,99336.28
2023-02-03T23:05:18.000Z,99333.66
2023-02-03T23:08:11.398Z,99338.38
2023-02-03T23:10:39.867Z,99341.78
2023-02-03T23:13:06.730Z,99343.34
2023-02-03T23:15:34.086Z,99346.72
2023-02-03T23:18:00.939Z,99348.56
2023-02-03T23:20:54.492Z,99339.41
2023-02-03T23:23:21.324Z,99335.75
2023-02-03T23:25:48.119Z,99350.38
2023-02-03T23:28:15.565Z,99338.91
2023-02-03T23:30:42.572Z,99337.06
2023-02-03T23:33:09.828Z,99339.16
2023-02-03T23:35:36.649Z,99340.97
2023-02-03T23:38:03.804Z,99350.09
2023-02-03T23:40:32.635Z,99351.16
2023-02-03T23:43:00.145Z,99355.88
2023-02-03T23:45:28.402Z,99357.94
2023-02-03T23:47:56.482Z,99366.03
2023-02-03T23:50:23.342Z,99364.22
2023-02-03T23:52:50.847Z,99374.13
2023-02-03T23:55:20.244Z,99374.91
2023-02-03T23:57:48.166Z,99376.75
